Kezdőlap
METAR-TAF:

METAR-TAF

Repülőterek :

Merrill Municipal Airport

Merrill, Wisconsin, Amerikai Egyesült Államok

földrajzi szélesség: 45-11N, földrajzi hosszúság: 089-42W, magasság: 401 m

Jelenlegi meteorológiai megfigyelések

A jelentés 21 perccel ezelõtt készült, 17:15 UTC
Kelet-délkeleti szél 6 kt
Hőmérséklet 22°C
Páratartalom 73%
Légköri nyomás 1021 hPa
Látótávolság: 16.1 km
Derült ég

METAR: KRRL 131715Z AUTO 12006KT 10SM CLR 22/17 A3015 RMK AO2 T02240173 TSNO

Idő: 12:36 (17:36 UTC)


TAF: hiányzik

Meteorológiai megfigyelések és előrejelzések több, mint 4000 repülőtéren (METAR és TAF jelentéseket).

A térképen piros és sárga pontok jelzik az elérhető meteorológiai állomásokat.

Mozgassa az egeret a pont fölött, hogy megjelenjen az állomás neve.

Azután kattintson az időjárási megfigyelések és előrejelzések megtekintéséhez.

A térkép megváltoztatása: kattintson a fekete keresztel jelölt zöld gombra ráközelítéshez, a vonallal jelölt zöld gombra távolításhoz, vagy a zöld nyilakra a szomszédos térképek eléréséhez.


METAR-TAF: